createdAt,value
2023-04-24T00:01:56.116Z,4.90
2023-04-24T00:04:00.535Z,2.10
2023-04-24T00:06:03.905Z,2.80
2023-04-24T00:08:07.090Z,1.70
2023-04-24T00:10:10.759Z,2.47
2023-04-24T00:12:13.905Z,4.30
2023-04-24T00:14:18.285Z,3.73
2023-04-24T00:16:21.397Z,2.23
2023-04-24T00:18:24.505Z,2.33
2023-04-24T00:20:27.573Z,3.73
2023-04-24T00:22:30.975Z,3.83
2023-04-24T00:24:34.030Z,2.83
2023-04-24T00:26:37.154Z,2.87
2023-04-24T00:28:40.295Z,4.60
2023-04-24T00:30:44.768Z,1.63
2023-04-24T00:32:48.045Z,3.30
2023-04-24T00:34:51.209Z,4.20
2023-04-24T00:36:54.340Z,4.43
2023-04-24T00:38:57.415Z,2.80
2023-04-24T00:41:00.938Z,2.70
2023-04-24T00:43:04.070Z,2.20
2023-04-24T00:45:08.527Z,2.90
2023-04-24T00:47:14.129Z,5.30
2023-04-24T00:49:17.252Z,2.73
2023-04-24T00:51:20.991Z,1.80
2023-04-24T00:53:24.290Z,2.43
2023-04-24T00:55:27.887Z,3.33
2023-04-24T00:57:31.071Z,2.90
2023-04-24T00:59:34.392Z,1.97
2023-04-24T01:01:38.126Z,1.80
2023-04-24T01:03:43.524Z,2.43
2023-04-24T01:05:46.869Z,4.00
2023-04-24T01:07:50.175Z,2.20
2023-04-24T01:09:53.304Z,2.70
2023-04-24T01:11:57.527Z,2.27
2023-04-24T01:14:00.892Z,2.43
2023-04-24T01:16:03.949Z,3.17
2023-04-24T01:18:07.689Z,2.47
2023-04-24T01:20:12.886Z,1.60
2023-04-24T01:22:19.426Z,1.97
2023-04-24T01:24:22.529Z,2.40
2023-04-24T01:26:26.629Z,1.97
2023-04-24T01:28:29.804Z,2.17
2023-04-24T01:30:32.971Z,2.30
2023-04-24T01:32:36.560Z,2.57
2023-04-24T01:34:39.895Z,3.40
2023-04-24T01:36:43.844Z,4.60
2023-04-24T01:38:48.331Z,2.17
2023-04-24T01:40:51.589Z,3.07
2023-04-24T01:42:55.042Z,2.77
2023-04-24T01:44:59.062Z,3.10
2023-04-24T01:47:02.688Z,2.80
2023-04-24T01:49:06.805Z,2.30
2023-04-24T01:51:09.875Z,1.80
2023-04-24T01:53:14.262Z,1.40
2023-04-24T01:55:18.705Z,2.50
2023-04-24T01:57:22.232Z,1.83
2023-04-24T01:59:25.753Z,3.03
2023-04-24T02:01:29.080Z,2.90
2023-04-24T02:03:32.300Z,2.27
2023-04-24T02:05:35.619Z,2.73
2023-04-24T02:07:40.176Z,1.93
2023-04-24T02:09:43.488Z,3.60
2023-04-24T02:11:48.164Z,2.53
2023-04-24T02:13:51.420Z,2.97
2023-04-24T02:15:54.499Z,1.90
2023-04-24T02:17:57.634Z,1.50
2023-04-24T02:20:00.914Z,2.67
2023-04-24T02:22:03.888Z,3.23
2023-04-24T02:24:06.999Z,2.60
2023-04-24T02:26:10.616Z,5.77
2023-04-24T02:28:14.994Z,3.23
2023-04-24T02:30:18.017Z,1.93
2023-04-24T02:32:22.074Z,1.77
2023-04-24T02:34:25.133Z,2.80
2023-04-24T02:36:28.194Z,2.70
2023-04-24T02:38:31.464Z,1.63
2023-04-24T02:40:34.449Z,3.30
2023-04-24T02:42:37.457Z,3.00
2023-04-24T02:44:41.870Z,2.50
2023-04-24T02:46:45.660Z,3.03
2023-04-24T02:48:48.723Z,2.17
2023-04-24T02:50:52.538Z,2.80
2023-04-24T02:52:55.599Z,1.70
2023-04-24T02:54:58.718Z,4.20
2023-04-24T02:57:02.227Z,2.17
2023-04-24T02:59:05.904Z,2.33
2023-04-24T03:01:11.176Z,3.63
2023-04-24T03:03:14.469Z,2.87
2023-04-24T03:05:17.856Z,3.87
2023-04-24T03:07:21.824Z,2.10
2023-04-24T03:09:24.878Z,4.00
2023-04-24T03:11:27.907Z,2.27
2023-04-24T03:13:30.924Z,2.33
2023-04-24T03:15:34.128Z,3.97
2023-04-24T03:17:38.668Z,2.30
2023-04-24T03:19:42.021Z,1.90
2023-04-24T03:21:47.356Z,2.70
2023-04-24T03:23:50.472Z,3.30
2023-04-24T03:25:53.875Z,1.47
2023-04-24T03:27:56.914Z,3.30
2023-04-24T03:30:10.008Z,1.97
2023-04-24T03:32:20.818Z,1.80
2023-04-24T03:34:25.920Z,2.27
2023-04-24T03:36:29.061Z,3.93
2023-04-24T03:38:32.588Z,3.80
2023-04-24T03:40:39.730Z,2.63
2023-04-24T03:42:53.402Z,2.37
2023-04-24T03:44:56.784Z,1.60
2023-04-24T03:47:04.597Z,2.43
2023-04-24T03:49:08.190Z,2.50
2023-04-24T03:51:16.142Z,2.00
2023-04-24T03:53:22.756Z,2.17
2023-04-24T03:55:26.780Z,3.20
2023-04-24T03:57:30.809Z,2.30
2023-04-24T03:59:45.193Z,2.60
2023-04-24T04:01:53.706Z,3.30
2023-04-24T04:03:57.561Z,2.20
2023-04-24T04:06:02.239Z,3.30
2023-04-24T04:08:06.812Z,2.13
2023-04-24T04:10:10.378Z,3.00
2023-04-24T04:12:14.763Z,1.60
2023-04-24T04:14:18.021Z,1.73
2023-04-24T04:16:24.337Z,1.70
2023-04-24T04:18:31.677Z,1.80
2023-04-24T04:20:35.166Z,1.70
2023-04-24T04:22:38.570Z,1.80
2023-04-24T04:24:47.465Z,3.87
2023-04-24T04:26:53.255Z,1.50
2023-04-24T04:29:07.721Z,1.40
2023-04-24T04:31:13.985Z,1.70
2023-04-24T04:33:17.346Z,2.30
2023-04-24T04:35:22.879Z,2.37
2023-04-24T04:37:27.342Z,3.80
2023-04-24T04:39:43.575Z,2.90
2023-04-24T04:41:54.211Z,1.87
2023-04-24T04:44:00.075Z,2.17
2023-04-24T04:46:04.706Z,2.60
2023-04-24T04:48:32.724Z,2.20
2023-04-24T04:50:38.016Z,1.77
2023-04-24T04:52:44.093Z,3.93
2023-04-24T04:54:56.751Z,4.00
2023-04-24T04:57:08.119Z,2.60
2023-04-24T04:59:13.330Z,3.10
2023-04-24T05:01:16.567Z,2.47
2023-04-24T05:03:22.811Z,2.30
2023-04-24T05:05:41.456Z,1.73
2023-04-24T05:07:47.788Z,2.57
2023-04-24T05:09:52.467Z,2.07
2023-04-24T05:11:56.438Z,1.67
2023-04-24T05:14:02.374Z,3.23
2023-04-24T05:16:16.581Z,2.67
2023-04-24T05:18:19.838Z,2.37
2023-04-24T05:20:23.577Z,3.13
2023-04-24T05:22:26.772Z,4.30
2023-04-24T05:24:29.976Z,1.80
2023-04-24T05:26:58.095Z,1.47
2023-04-24T05:29:07.172Z,3.93
2023-04-24T05:31:10.289Z,2.07
2023-04-24T05:33:15.136Z,3.70
2023-04-24T05:35:19.673Z,2.93
2023-04-24T05:37:23.020Z,2.53
2023-04-24T05:39:26.762Z,2.33
2023-04-24T05:41:30.899Z,2.67
2023-04-24T05:43:34.060Z,2.40
2023-04-24T05:45:38.610Z,1.93
2023-04-24T05:47:41.684Z,2.00
2023-04-24T05:49:45.185Z,2.70
2023-04-24T05:51:48.546Z,2.60
2023-04-24T05:53:55.762Z,2.47
2023-04-24T05:55:59.033Z,2.67
2023-04-24T05:58:02.154Z,2.43
2023-04-24T06:00:09.049Z,2.57
2023-04-24T06:02:25.938Z,2.53
2023-04-24T06:04:31.521Z,4.10
2023-04-24T06:06:36.252Z,3.00
2023-04-24T06:08:39.848Z,3.33
2023-04-24T06:10:43.467Z,3.30
2023-04-24T06:12:47.344Z,3.37
2023-04-24T06:14:53.722Z,4.50
2023-04-24T06:17:02.218Z,2.83
2023-04-24T06:19:13.316Z,3.00
2023-04-24T06:21:18.153Z,3.43
2023-04-24T06:23:21.789Z,3.73
2023-04-24T06:25:27.139Z,3.63
2023-04-24T06:27:30.271Z,3.60
2023-04-24T06:29:33.521Z,5.17
2023-04-24T06:31:38.172Z,3.60
2023-04-24T06:33:41.557Z,4.60
2023-04-24T06:35:47.660Z,5.17
2023-04-24T06:37:51.227Z,3.50
2023-04-24T06:39:54.309Z,4.37
2023-04-24T06:41:57.304Z,5.87
2023-04-24T06:44:00.860Z,4.10
2023-04-24T06:46:04.638Z,4.47
2023-04-24T06:48:08.040Z,3.60
2023-04-24T06:50:12.471Z,8.77
2023-04-24T06:52:16.993Z,4.00
2023-04-24T06:54:20.447Z,4.17
2023-04-24T06:56:23.622Z,6.50
2023-04-24T06:58:27.089Z,4.50
2023-04-24T07:00:31.157Z,4.13
2023-04-24T07:02:34.300Z,6.70
2023-04-24T07:04:37.821Z,5.20
2023-04-24T07:06:41.381Z,4.40
2023-04-24T07:08:45.806Z,4.50
2023-04-24T07:10:48.943Z,3.60
2023-04-24T07:12:52.541Z,3.70
2023-04-24T07:14:55.671Z,7.00
2023-04-24T07:16:59.629Z,3.10
2023-04-24T07:19:02.698Z,4.70
2023-04-24T07:21:05.963Z,4.10
2023-04-24T07:23:09.269Z,3.90
2023-04-24T07:25:14.290Z,5.33
2023-04-24T07:27:17.546Z,3.07
2023-04-24T07:29:20.964Z,3.50
2023-04-24T07:31:24.153Z,6.60
2023-04-24T07:33:27.445Z,3.93
2023-04-24T07:35:30.870Z,3.20
2023-04-24T07:37:33.981Z,4.60
2023-04-24T07:39:37.086Z,4.40
2023-04-24T07:41:41.891Z,5.67
2023-04-24T07:43:44.993Z,3.63
2023-04-24T07:45:48.257Z,4.33
2023-04-24T07:47:52.514Z,5.63
2023-04-24T07:49:56.022Z,4.77
2023-04-24T07:52:01.484Z,5.73
2023-04-24T07:54:04.885Z,4.23
2023-04-24T07:56:08.267Z,3.73
2023-04-24T07:58:12.671Z,3.27
2023-04-24T08:00:16.477Z,3.63
2023-04-24T08:02:19.547Z,3.70
2023-04-24T08:04:22.786Z,3.57
2023-04-24T08:06:28.940Z,5.60
2023-04-24T08:08:32.019Z,3.90
2023-04-24T08:10:35.076Z,4.23
2023-04-24T08:12:39.077Z,3.40
2023-04-24T08:14:43.843Z,3.83
2023-04-24T08:16:47.160Z,4.23
2023-04-24T08:18:51.439Z,6.80
2023-04-24T08:20:54.837Z,2.77
2023-04-24T08:22:58.430Z,4.30
2023-04-24T08:25:02.661Z,4.57
2023-04-24T08:27:06.014Z,3.73
2023-04-24T08:29:09.074Z,5.23
2023-04-24T08:31:13.740Z,2.90
2023-04-24T08:33:16.942Z,2.93
2023-04-24T08:35:20.518Z,2.37
2023-04-24T08:37:23.639Z,4.50
2023-04-24T08:39:26.778Z,2.70
2023-04-24T08:41:30.024Z,2.60
2023-04-24T08:43:35.438Z,4.90
2023-04-24T08:45:39.537Z,7.40
2023-04-24T08:47:45.218Z,2.93
2023-04-24T08:49:50.442Z,5.47
2023-04-24T08:51:54.769Z,3.23
2023-04-24T08:53:58.706Z,2.70
2023-04-24T08:56:03.259Z,3.53
2023-04-24T08:58:06.407Z,2.67
2023-04-24T09:00:12.434Z,3.23
2023-04-24T09:02:16.030Z,4.23
2023-04-24T09:04:23.180Z,3.33
2023-04-24T09:06:27.338Z,3.17
2023-04-24T09:08:30.896Z,4.00
2023-04-24T09:10:34.009Z,2.13
2023-04-24T09:12:37.152Z,2.90
2023-04-24T09:14:43.713Z,2.13
2023-04-24T09:16:47.534Z,2.30
2023-04-24T09:18:50.758Z,3.83
2023-04-24T09:21:01.908Z,2.90
2023-04-24T09:23:05.125Z,3.00
2023-04-24T09:25:10.077Z,4.33
2023-04-24T09:27:13.823Z,2.90
2023-04-24T09:29:17.648Z,3.60
2023-04-24T09:31:23.111Z,2.60
2023-04-24T09:33:26.280Z,2.13
2023-04-24T09:35:29.398Z,5.13
2023-04-24T09:37:38.218Z,4.30
2023-04-24T09:39:42.351Z,3.30
2023-04-24T09:41:46.741Z,2.50
2023-04-24T09:43:50.030Z,3.43
2023-04-24T09:45:58.445Z,2.20
2023-04-24T09:48:01.536Z,4.80
2023-04-24T09:50:11.962Z,3.57
2023-04-24T09:52:15.158Z,5.77
2023-04-24T09:54:21.793Z,4.47
2023-04-24T09:56:28.009Z,3.73
2023-04-24T09:58:31.836Z,3.20
2023-04-24T10:00:35.427Z,4.07
2023-04-24T10:02:38.530Z,2.63
2023-04-24T10:04:42.134Z,1.80
2023-04-24T10:06:45.603Z,3.00
2023-04-24T10:08:48.997Z,2.20
2023-04-24T10:10:53.490Z,1.90
2023-04-24T10:12:57.040Z,2.30
2023-04-24T10:15:00.576Z,2.20
2023-04-24T10:17:03.815Z,2.73
2023-04-24T10:19:07.048Z,2.37
2023-04-24T10:21:10.092Z,2.43
2023-04-24T10:23:13.243Z,2.90
2023-04-24T10:25:17.030Z,2.17
2023-04-24T10:27:22.921Z,2.83
2023-04-24T10:29:26.975Z,2.40
2023-04-24T10:31:33.743Z,3.13
2023-04-24T10:33:37.391Z,2.63
2023-04-24T10:35:48.885Z,2.93
2023-04-24T10:37:54.758Z,2.43
2023-04-24T10:39:58.010Z,2.83
2023-04-24T10:42:01.174Z,2.37
2023-04-24T10:44:08.909Z,2.80
2023-04-24T10:46:12.435Z,3.33
2023-04-24T10:48:17.439Z,2.20
2023-04-24T10:50:20.725Z,3.47
2023-04-24T10:52:23.920Z,4.27
2023-04-24T10:54:28.684Z,3.30
2023-04-24T10:56:31.755Z,3.40
2023-04-24T10:58:39.657Z,3.13
2023-04-24T11:00:45.755Z,2.73
2023-04-24T11:02:54.333Z,3.53
2023-04-24T11:04:58.315Z,4.03
2023-04-24T11:07:02.189Z,2.63
2023-04-24T11:09:07.561Z,2.50
2023-04-24T11:11:12.375Z,3.57
2023-04-24T11:13:17.206Z,6.87
2023-04-24T11:15:21.137Z,3.70
2023-04-24T11:17:31.911Z,3.30
2023-04-24T11:19:37.919Z,2.87
2023-04-24T11:21:43.136Z,4.40
2023-04-24T11:23:47.317Z,3.20
2023-04-24T11:26:12.117Z,4.30
2023-04-24T11:28:17.907Z,3.20
2023-04-24T11:30:22.301Z,3.60
2023-04-24T11:32:27.906Z,4.20
2023-04-24T11:34:34.324Z,2.80
2023-04-24T11:36:37.816Z,5.57
2023-04-24T11:38:41.413Z,2.70
2023-04-24T11:40:45.415Z,3.17
2023-04-24T11:42:49.780Z,4.23
2023-04-24T11:44:54.921Z,4.73
2023-04-24T11:46:58.146Z,4.00
2023-04-24T11:49:01.902Z,3.20
2023-04-24T11:51:06.627Z,4.07
2023-04-24T11:53:09.827Z,4.03
2023-04-24T11:55:27.065Z,3.37
2023-04-24T11:57:34.623Z,3.57
2023-04-24T11:59:38.979Z,2.93
2023-04-24T12:01:46.325Z,3.10
2023-04-24T12:03:53.318Z,3.70
2023-04-24T12:06:08.736Z,2.90
2023-04-24T12:08:11.944Z,3.77
2023-04-24T12:10:15.730Z,2.87
2023-04-24T12:12:19.758Z,3.00
2023-04-24T12:14:22.776Z,3.30
2023-04-24T12:16:26.949Z,4.17
2023-04-24T12:18:30.004Z,4.20
2023-04-24T12:20:33.950Z,3.10
2023-04-24T12:22:48.427Z,3.10
2023-04-24T12:25:02.696Z,3.80
2023-04-24T12:27:05.772Z,3.53
2023-04-24T12:29:09.017Z,4.40
2023-04-24T12:31:12.101Z,3.70
2023-04-24T12:33:15.289Z,5.70
2023-04-24T12:35:21.990Z,5.90
2023-04-24T12:37:26.203Z,4.57
2023-04-24T12:39:30.626Z,4.33
2023-04-24T12:41:33.670Z,5.67
2023-04-24T12:43:36.817Z,5.53
2023-04-24T12:45:39.815Z,4.63
2023-04-24T12:47:43.781Z,5.00
2023-04-24T12:49:46.749Z,7.80
2023-04-24T12:51:49.756Z,3.60
2023-04-24T12:53:54.850Z,5.40
2023-04-24T12:56:00.910Z,3.60
2023-04-24T12:58:04.034Z,4.10
2023-04-24T13:00:09.753Z,3.50
2023-04-24T13:02:13.223Z,6.83
2023-04-24T13:04:18.157Z,3.80
2023-04-24T13:06:21.963Z,3.90
2023-04-24T13:08:25.149Z,3.27
2023-04-24T13:10:28.314Z,5.23
2023-04-24T13:12:32.754Z,4.30
2023-04-24T13:14:35.936Z,3.80
2023-04-24T13:16:38.979Z,3.60
2023-04-24T13:18:42.112Z,4.63
2023-04-24T13:20:45.283Z,7.13
2023-04-24T13:22:48.849Z,3.67
2023-04-24T13:24:51.863Z,3.90
2023-04-24T13:26:54.870Z,6.00
2023-04-24T13:28:59.165Z,6.70
2023-04-24T13:31:02.097Z,4.70
2023-04-24T13:33:05.346Z,4.30
2023-04-24T13:35:09.043Z,5.63
2023-04-24T13:37:12.184Z,5.90
2023-04-24T13:39:15.392Z,5.17
2023-04-24T13:41:18.356Z,8.47
2023-04-24T13:43:21.424Z,4.70
2023-04-24T13:45:26.046Z,4.27
2023-04-24T13:47:29.127Z,4.87
2023-04-24T13:49:32.205Z,4.90
2023-04-24T13:51:35.444Z,5.10
2023-04-24T13:53:39.720Z,5.37
2023-04-24T13:55:42.766Z,4.60
2023-04-24T13:57:45.999Z,4.83
2023-04-24T13:59:49.052Z,4.30
2023-04-24T14:01:53.508Z,5.60
2023-04-24T14:03:58.054Z,5.03
2023-04-24T14:06:01.220Z,5.40
2023-04-24T14:08:04.464Z,4.00
2023-04-24T14:10:08.483Z,5.33
2023-04-24T14:12:11.662Z,4.50
2023-04-24T14:14:14.802Z,6.53
2023-04-24T14:16:18.071Z,5.73
2023-04-24T14:18:22.661Z,6.57
2023-04-24T14:20:26.040Z,5.60
2023-04-24T14:22:29.205Z,6.90
2023-04-24T14:24:32.370Z,4.97
2023-04-24T14:26:36.121Z,9.17
2023-04-24T14:28:39.397Z,5.77
2023-04-24T14:30:42.462Z,5.10
2023-04-24T14:32:45.886Z,6.17
2023-04-24T14:34:50.570Z,5.30
2023-04-24T14:36:54.760Z,7.60
2023-04-24T14:38:58.125Z,5.30
2023-04-24T14:41:06.808Z,5.17
2023-04-24T14:43:11.255Z,9.37
2023-04-24T14:45:14.627Z,5.37
2023-04-24T14:47:18.447Z,6.80
2023-04-24T14:49:21.533Z,4.47
2023-04-24T14:51:26.298Z,4.47
2023-04-24T14:53:29.536Z,4.10
2023-04-24T14:55:34.331Z,6.20
2023-04-24T14:57:37.946Z,4.20
2023-04-24T14:59:40.973Z,4.90
2023-04-24T15:01:44.123Z,4.93
2023-04-24T15:03:47.910Z,8.03
2023-04-24T15:05:51.864Z,5.37
2023-04-24T15:07:56.412Z,4.60
2023-04-24T15:09:59.539Z,4.47
2023-04-24T15:12:02.843Z,4.47
2023-04-24T15:14:05.912Z,6.90
2023-04-24T15:16:09.057Z,3.90
2023-04-24T15:18:15.804Z,4.20
2023-04-24T15:20:19.035Z,4.13
2023-04-24T15:22:22.176Z,13.93
2023-04-24T15:24:26.730Z,4.27
2023-04-24T15:26:30.161Z,6.33
2023-04-24T15:28:33.164Z,4.13
2023-04-24T15:30:36.289Z,3.60
2023-04-24T15:32:39.937Z,4.37
2023-04-24T15:34:43.724Z,4.50
2023-04-24T15:36:47.710Z,3.60
2023-04-24T15:38:51.758Z,3.90
2023-04-24T15:40:56.244Z,6.40
2023-04-24T15:42:59.664Z,3.73
2023-04-24T15:45:02.747Z,4.20
2023-04-24T15:47:05.945Z,3.13
2023-04-24T15:49:09.148Z,6.10
2023-04-24T15:51:12.246Z,4.10
2023-04-24T15:53:21.927Z,4.33
2023-04-24T15:55:25.045Z,4.20
2023-04-24T15:57:29.521Z,3.47
2023-04-24T15:59:32.544Z,4.17
2023-04-24T16:01:35.786Z,4.30
2023-04-24T16:03:38.901Z,3.33
2023-04-24T16:05:42.227Z,4.87
2023-04-24T16:07:45.387Z,4.80
2023-04-24T16:09:48.502Z,4.73
2023-04-24T16:11:51.854Z,4.07
2023-04-24T16:13:56.339Z,2.60
2023-04-24T16:15:59.374Z,2.40
2023-04-24T16:18:02.429Z,3.03
2023-04-24T16:20:07.484Z,3.50
2023-04-24T16:22:10.643Z,4.83
2023-04-24T16:24:14.016Z,2.73
2023-04-24T16:26:17.038Z,4.90
2023-04-24T16:28:20.358Z,3.17
2023-04-24T16:30:25.315Z,4.70
2023-04-24T16:32:28.638Z,3.00
2023-04-24T16:34:31.680Z,4.10
2023-04-24T16:36:34.790Z,4.60
2023-04-24T16:38:37.951Z,3.30
2023-04-24T16:40:42.296Z,2.93
2023-04-24T16:42:45.459Z,3.70
2023-04-24T16:44:48.837Z,3.30
2023-04-24T16:46:53.465Z,3.57
2023-04-24T16:48:56.796Z,3.60
2023-04-24T16:51:00.028Z,3.27
2023-04-24T16:53:03.348Z,5.57
2023-04-24T16:55:07.416Z,3.77
2023-04-24T16:57:10.663Z,3.67
2023-04-24T16:59:13.707Z,3.33
2023-04-24T17:01:16.777Z,2.63
2023-04-24T17:03:21.701Z,2.63
2023-04-24T17:05:24.960Z,4.00
2023-04-24T17:07:28.186Z,3.03
2023-04-24T17:09:31.395Z,2.90
2023-04-24T17:11:34.505Z,2.73
2023-04-24T17:13:37.620Z,2.63
2023-04-24T17:15:40.847Z,3.13
2023-04-24T17:17:44.330Z,3.03
2023-04-24T17:19:48.904Z,3.20
2023-04-24T17:21:52.216Z,3.43
2023-04-24T17:23:55.490Z,4.07
2023-04-24T17:25:58.576Z,4.83
2023-04-24T17:28:01.688Z,3.97
2023-04-24T17:30:05.603Z,4.47
2023-04-24T17:32:08.895Z,3.87
2023-04-24T17:34:12.061Z,3.13
2023-04-24T17:36:16.604Z,4.63
2023-04-24T17:38:20.105Z,4.20
2023-04-24T17:40:23.143Z,3.00
2023-04-24T17:42:26.333Z,3.30
2023-04-24T17:44:29.489Z,3.67
2023-04-24T17:46:32.672Z,3.40
2023-04-24T17:48:36.695Z,3.27
2023-04-24T17:50:39.929Z,3.60
2023-04-24T17:52:44.335Z,5.00
2023-04-24T17:54:49.610Z,4.97
2023-04-24T17:56:53.922Z,3.40
2023-04-24T17:58:58.534Z,3.07
2023-04-24T18:01:01.585Z,3.13
2023-04-24T18:03:05.525Z,3.47
2023-04-24T18:05:08.890Z,4.40
2023-04-24T18:07:12.008Z,4.17
2023-04-24T18:09:18.925Z,3.60
2023-04-24T18:11:22.157Z,3.97
2023-04-24T18:13:25.350Z,4.33
2023-04-24T18:15:28.486Z,5.37
2023-04-24T18:17:31.707Z,4.70
2023-04-24T18:19:35.067Z,4.20
2023-04-24T18:21:38.200Z,5.03
2023-04-24T18:23:41.274Z,4.17
2023-04-24T18:25:45.887Z,4.73
2023-04-24T18:27:49.008Z,3.60
2023-04-24T18:29:52.242Z,5.83
2023-04-24T18:31:55.452Z,3.67
2023-04-24T18:33:58.519Z,3.90
2023-04-24T18:36:03.583Z,3.30
2023-04-24T18:38:06.933Z,3.80
2023-04-24T18:40:11.337Z,5.57
2023-04-24T18:42:15.971Z,3.97
2023-04-24T18:44:20.180Z,5.23
2023-04-24T18:46:23.986Z,4.10
2023-04-24T18:48:28.684Z,3.67
2023-04-24T18:50:33.013Z,3.40
2023-04-24T18:52:36.213Z,5.00
2023-04-24T18:54:39.389Z,4.13
2023-04-24T18:56:42.460Z,4.37
2023-04-24T18:58:47.178Z,7.60
2023-04-24T19:00:50.661Z,5.10
2023-04-24T19:02:54.068Z,7.30
2023-04-24T19:04:57.305Z,11.43
2023-04-24T19:07:00.522Z,8.83
2023-04-24T19:09:03.926Z,7.70
2023-04-24T19:11:07.218Z,7.53
2023-04-24T19:13:10.660Z,6.87
2023-04-24T19:15:15.296Z,9.57
2023-04-24T19:17:23.429Z,14.70
2023-04-24T19:19:28.623Z,11.73
2023-04-24T19:21:33.486Z,9.67
2023-04-24T19:23:39.679Z,7.90
2023-04-24T19:25:42.786Z,6.63
2023-04-24T19:27:45.935Z,9.00
2023-04-24T19:29:49.071Z,6.30
2023-04-24T19:31:54.627Z,9.60
2023-04-24T19:33:57.849Z,8.10
2023-04-24T19:36:01.207Z,7.23
2023-04-24T19:38:04.279Z,6.87
2023-04-24T19:40:08.863Z,4.90
2023-04-24T19:42:12.189Z,5.67
2023-04-24T19:44:17.316Z,4.20
2023-04-24T19:46:20.932Z,3.63
2023-04-24T19:48:25.623Z,4.27
2023-04-24T19:50:28.929Z,5.67
2023-04-24T19:52:32.020Z,4.13
2023-04-24T19:54:35.116Z,4.07
2023-04-24T19:56:38.297Z,5.40
2023-04-24T19:58:41.494Z,6.97
2023-04-24T20:00:44.702Z,4.70
2023-04-24T20:02:47.976Z,4.90
2023-04-24T20:04:52.798Z,4.83
2023-04-24T20:06:56.046Z,4.40
2023-04-24T20:09:01.337Z,4.30
2023-04-24T20:11:04.481Z,4.00
2023-04-24T20:13:07.651Z,3.83
2023-04-24T20:15:12.573Z,4.97
2023-04-24T20:17:15.667Z,7.80
2023-04-24T20:19:18.968Z,17.30
2023-04-24T20:21:23.504Z,28.50
2023-04-24T20:23:26.945Z,17.33
2023-04-24T20:25:30.105Z,14.20
2023-04-24T20:27:33.427Z,8.93
2023-04-24T20:29:36.524Z,6.60
2023-04-24T20:31:39.867Z,5.80
2023-04-24T20:33:43.060Z,4.83
2023-04-24T20:35:46.222Z,6.60
2023-04-24T20:37:50.653Z,8.43
2023-04-24T20:39:53.717Z,9.33
2023-04-24T20:41:58.306Z,10.03
2023-04-24T20:44:01.751Z,9.57
2023-04-24T20:46:04.897Z,7.40
2023-04-24T20:48:09.800Z,7.47
2023-04-24T20:50:13.171Z,6.30
2023-04-24T20:52:16.335Z,5.60
2023-04-24T20:54:20.848Z,5.77
2023-04-24T20:56:24.801Z,6.90
2023-04-24T20:58:27.996Z,6.00
2023-04-24T21:00:31.274Z,10.90
2023-04-24T21:02:34.389Z,7.47
2023-04-24T21:04:39.740Z,4.80
2023-04-24T21:06:42.916Z,4.50
2023-04-24T21:08:45.956Z,4.87
2023-04-24T21:10:51.805Z,3.80
2023-04-24T21:12:54.880Z,6.50
2023-04-24T21:14:57.884Z,5.60
2023-04-24T21:17:01.833Z,4.90
2023-04-24T21:19:05.407Z,5.43
2023-04-24T21:21:09.299Z,4.10
2023-04-24T21:23:12.421Z,4.83
2023-04-24T21:25:15.694Z,6.93
2023-04-24T21:27:20.100Z,5.20
2023-04-24T21:29:24.648Z,4.60
2023-04-24T21:31:27.743Z,4.37
2023-04-24T21:33:31.305Z,5.23
2023-04-24T21:35:34.300Z,5.63
2023-04-24T21:37:39.587Z,6.17
2023-04-24T21:39:42.814Z,5.30
2023-04-24T21:41:46.986Z,4.40
2023-04-24T21:43:51.539Z,4.80
2023-04-24T21:45:54.754Z,4.60
2023-04-24T21:47:59.141Z,6.50
2023-04-24T21:50:02.223Z,4.77
2023-04-24T21:52:05.369Z,5.70
2023-04-24T21:54:08.485Z,7.73
2023-04-24T21:56:11.957Z,5.13
2023-04-24T21:58:15.043Z,5.70
2023-04-24T22:00:19.613Z,5.30
2023-04-24T22:02:22.897Z,5.50
2023-04-24T22:04:26.690Z,5.77
2023-04-24T22:06:30.004Z,5.50
2023-04-24T22:08:33.140Z,5.17
2023-04-24T22:10:36.917Z,6.20
2023-04-24T22:12:40.074Z,4.67
2023-04-24T22:14:43.852Z,5.63
2023-04-24T22:16:50.320Z,7.00
2023-04-24T22:18:55.276Z,4.20
2023-04-24T22:20:58.576Z,5.70
2023-04-24T22:23:01.674Z,5.80
2023-04-24T22:25:05.159Z,5.10
2023-04-24T22:27:08.588Z,5.20
2023-04-24T22:29:11.681Z,4.53
2023-04-24T22:31:14.830Z,4.67
2023-04-24T22:33:19.292Z,4.77
2023-04-24T22:35:22.565Z,5.80
2023-04-24T22:37:25.835Z,4.90
2023-04-24T22:39:29.035Z,5.27
2023-04-24T22:41:32.061Z,9.17
2023-04-24T22:43:35.248Z,11.23
2023-04-24T22:45:38.699Z,11.33
2023-04-24T22:47:41.845Z,13.77
2023-04-24T22:49:46.299Z,10.70
2023-04-24T22:51:49.266Z,7.37
2023-04-24T22:53:52.523Z,6.30
2023-04-24T22:55:55.975Z,5.83
2023-04-24T22:57:58.989Z,6.73
2023-04-24T23:00:02.118Z,6.70
2023-04-24T23:02:05.299Z,5.70
2023-04-24T23:04:08.516Z,6.10
2023-04-24T23:06:13.065Z,5.10
2023-04-24T23:08:16.083Z,4.90
2023-04-24T23:10:19.385Z,5.60
2023-04-24T23:12:22.565Z,7.53
2023-04-24T23:14:25.862Z,5.50
2023-04-24T23:16:31.111Z,7.80
2023-04-24T23:18:34.446Z,6.67
2023-04-24T23:20:38.589Z,5.70
2023-04-24T23:22:43.161Z,5.90
2023-04-24T23:24:46.342Z,5.50
2023-04-24T23:26:49.325Z,6.80
2023-04-24T23:28:52.402Z,6.27
2023-04-24T23:30:55.644Z,7.20
2023-04-24T23:32:58.650Z,6.13
2023-04-24T23:35:01.732Z,7.50
2023-04-24T23:37:05.172Z,6.10
2023-04-24T23:39:09.535Z,7.63
2023-04-24T23:41:12.698Z,7.40
2023-04-24T23:43:15.674Z,8.53
2023-04-24T23:45:18.801Z,9.20
2023-04-24T23:47:22.067Z,12.03
2023-04-24T23:49:25.237Z,6.73
2023-04-24T23:51:28.307Z,6.03
2023-04-24T23:53:31.348Z,5.67
2023-04-24T23:55:35.789Z,5.63
2023-04-24T23:57:38.884Z,5.83
2023-04-24T23:59:41.997Z,6.03
